Time;durP1;ratioP1;P1;durP2;ratioP2;P2;SDS_P1;SDS_P2;PMS_P1;PMS_P2;Temp;Humidity;BMP_temperature;BMP_pressure;BME280_temperature;BME280_humidity;BME280_pressure;Samples;Min_cycle;Max_cycle;Signal;HPM_P1;HPM_P2
2022/08/02 00:01:39;;;;;;;3.40;2.43;;;;;;;;;;5093935;28;20458;-60
2022/08/02 00:04:06;;;;;;;2.10;1.83;;;;;;;;;;5093474;28;20902;-59
2022/08/02 00:06:34;;;;;;;2.00;1.90;;;;;;;;;;5093295;28;20446;-60
2022/08/02 00:09:01;;;;;;;6.30;2.37;;;;;;;;;;5093267;28;20482;-59
2022/08/02 00:11:29;;;;;;;2.87;2.67;;;;;;;;;;5093261;28;20451;-59
2022/08/02 00:13:56;;;;;;;2.27;2.10;;;;;;;;;;5093451;28;20451;-59
2022/08/02 00:16:23;;;;;;;2.27;2.10;;;;;;;;;;5093401;28;20452;-59
2022/08/02 00:18:50;;;;;;;5.10;2.63;;;;;;;;;;5093319;28;20886;-59
2022/08/02 00:21:17;;;;;;;2.43;2.10;;;;;;;;;;5093233;28;20981;-59
2022/08/02 00:23:44;;;;;;;2.17;2.03;;;;;;;;;;5093580;28;20523;-59
2022/08/02 00:26:11;;;;;;;2.67;2.47;;;;;;;;;;5093057;28;20536;-59
2022/08/02 00:28:39;;;;;;;2.50;2.40;;;;;;;;;;5093122;28;20913;-59
2022/08/02 00:31:06;;;;;;;2.83;2.63;;;;;;;;;;5093181;28;20442;-59
2022/08/02 00:33:33;;;;;;;2.93;2.73;;;;;;;;;;5093079;28;20533;-59
2022/08/02 00:36:00;;;;;;;2.67;2.47;;;;;;;;;;5093081;28;20525;-59
2022/08/02 00:38:27;;;;;;;2.57;2.37;;;;;;;;;;5092923;28;20460;-59
2022/08/02 00:40:54;;;;;;;2.53;2.23;;;;;;;;;;5092765;28;20464;-59
2022/08/02 00:43:21;;;;;;;4.63;2.77;;;;;;;;;;5093011;28;20545;-59
2022/08/02 00:45:49;;;;;;;2.50;2.30;;;;;;;;;;5092962;28;20538;-59
2022/08/02 00:48:16;;;;;;;2.50;2.30;;;;;;;;;;5092903;28;20565;-59
2022/08/02 00:50:43;;;;;;;3.93;2.93;;;;;;;;;;5092842;28;20890;-59
2022/08/02 00:53:10;;;;;;;4.40;2.63;;;;;;;;;;5093168;28;20824;-59
2022/08/02 00:55:38;;;;;;;3.23;2.90;;;;;;;;;;5092994;28;20529;-59
2022/08/02 00:58:05;;;;;;;2.70;2.60;;;;;;;;;;5092488;28;20551;-59
2022/08/02 01:00:32;;;;;;;3.17;2.97;;;;;;;;;;5092883;28;20450;-59
2022/08/02 01:03:00;;;;;;;2.80;2.70;;;;;;;;;;5092740;28;20446;-59
2022/08/02 01:05:27;;;;;;;3.40;2.50;;;;;;;;;;5092701;28;20580;-59
2022/08/02 01:07:54;;;;;;;2.60;2.50;;;;;;;;;;5092518;28;20477;-59
2022/08/02 01:10:21;;;;;;;4.17;3.30;;;;;;;;;;5092837;28;20451;-59
2022/08/02 01:12:48;;;;;;;6.73;3.20;;;;;;;;;;5096688;28;20454;-59
2022/08/02 01:15:15;;;;;;;2.93;2.73;;;;;;;;;;5097002;28;20523;-59
2022/08/02 01:17:48;;;;;;;3.10;2.90;;;;;;;;;;5096582;28;21060;-59
2022/08/02 01:20:22;;;;;;;2.60;2.50;;;;;;;;;;5096485;28;20875;-59
2022/08/02 01:22:59;;;;;;;2.70;2.50;;;;;;;;;;5096605;28;20442;-59
2022/08/02 01:25:32;;;;;;;3.20;3.00;;;;;;;;;;5096554;28;20495;-59
2022/08/02 01:28:09;;;;;;;2.77;2.53;;;;;;;;;;5096351;28;20545;-59
2022/08/02 01:30:36;;;;;;;3.07;2.70;;;;;;;;;;5096317;28;20446;-59
2022/08/02 01:33:05;;;;;;;2.80;2.70;;;;;;;;;;5096479;28;20542;-59
2022/08/02 01:35:37;;;;;;;3.60;3.30;;;;;;;;;;5096384;28;20541;-59
2022/08/02 01:38:08;;;;;;;3.20;2.90;;;;;;;;;;5096337;28;20604;-59
2022/08/02 01:40:36;;;;;;;2.93;2.73;;;;;;;;;;5096314;28;20541;-59
2022/08/02 01:43:04;;;;;;;3.07;2.63;;;;;;;;;;5095868;28;20937;-59
2022/08/02 01:45:33;;;;;;;3.20;2.93;;;;;;;;;;5096275;28;20537;-59
2022/08/02 01:48:01;;;;;;;2.80;2.60;;;;;;;;;;5095999;28;20524;-59
2022/08/02 01:50:31;;;;;;;2.70;2.60;;;;;;;;;;5096035;28;20450;-59
2022/08/02 01:52:59;;;;;;;3.97;3.60;;;;;;;;;;5095989;28;20613;-59
2022/08/02 01:55:28;;;;;;;2.37;2.27;;;;;;;;;;5096137;28;20545;-59
2022/08/02 01:57:57;;;;;;;2.80;2.60;;;;;;;;;;5095674;28;20471;-59
2022/08/02 02:00:25;;;;;;;3.07;2.87;;;;;;;;;;5095800;28;20438;-59
2022/08/02 02:02:56;;;;;;;3.00;2.70;;;;;;;;;;5095886;28;20874;-59
2022/08/02 02:05:25;;;;;;;3.40;3.20;;;;;;;;;;5095750;28;20450;-59
2022/08/02 02:07:54;;;;;;;3.30;3.10;;;;;;;;;;5095536;28;20447;-59
2022/08/02 02:10:24;;;;;;;2.83;2.63;;;;;;;;;;5095491;28;20472;-59
2022/08/02 02:12:52;;;;;;;3.30;3.00;;;;;;;;;;5095699;28;20478;-59
2022/08/02 02:15:19;;;;;;;3.57;3.37;;;;;;;;;;5095590;28;20801;-59
2022/08/02 02:17:48;;;;;;;3.40;3.10;;;;;;;;;;5095445;28;20802;-59
2022/08/02 02:20:17;;;;;;;3.30;3.10;;;;;;;;;;5095367;28;20541;-59
2022/08/02 02:22:44;;;;;;;3.23;2.90;;;;;;;;;;5093862;28;20455;-59
2022/08/02 02:25:12;;;;;;;3.30;3.10;;;;;;;;;;5095503;28;20453;-59
2022/08/02 02:27:42;;;;;;;2.93;2.73;;;;;;;;;;5095305;28;20446;-59
2022/08/02 02:30:11;;;;;;;3.27;3.00;;;;;;;;;;5095236;28;20483;-59
2022/08/02 02:32:38;;;;;;;3.40;3.10;;;;;;;;;;5095130;28;20446;-59
2022/08/02 02:35:05;;;;;;;3.20;3.00;;;;;;;;;;5095106;28;20530;-59
2022/08/02 02:37:34;;;;;;;3.50;3.20;;;;;;;;;;5094991;28;20964;-59
2022/08/02 02:40:02;;;;;;;3.37;3.07;;;;;;;;;;5095093;28;20447;-59
2022/08/02 02:42:30;;;;;;;2.97;2.77;;;;;;;;;;5094900;28;20453;-59
2022/08/02 02:44:57;;;;;;;3.60;3.30;;;;;;;;;;5094883;28;20770;-59
2022/08/02 02:47:25;;;;;;;5.57;3.43;;;;;;;;;;5094833;28;20468;-59
2022/08/02 02:49:52;;;;;;;3.30;3.10;;;;;;;;;;5094559;28;20578;-59
2022/08/02 02:52:20;;;;;;;3.37;3.17;;;;;;;;;;5094916;28;20453;-60
2022/08/02 02:54:49;;;;;;;3.13;2.90;;;;;;;;;;5094769;28;20834;-59
2022/08/02 02:57:16;;;;;;;3.80;3.50;;;;;;;;;;5094510;28;20496;-59
2022/08/02 02:59:43;;;;;;;3.47;3.17;;;;;;;;;;5094613;28;20457;-59
2022/08/02 03:02:10;;;;;;;4.03;3.13;;;;;;;;;;5094445;28;20447;-59
2022/08/02 03:04:38;;;;;;;3.60;3.30;;;;;;;;;;5094669;28;20446;-59
2022/08/02 03:07:05;;;;;;;4.13;3.83;;;;;;;;;;5094556;28;20446;-59
2022/08/02 03:09:32;;;;;;;3.30;3.10;;;;;;;;;;5094455;28;20596;-59
2022/08/02 03:12:00;;;;;;;3.43;3.13;;;;;;;;;;5094353;28;20443;-59
2022/08/02 03:14:27;;;;;;;6.80;3.60;;;;;;;;;;5094292;28;20446;-59
2022/08/02 03:16:54;;;;;;;3.20;3.00;;;;;;;;;;5094232;28;20791;-59
2022/08/02 03:19:22;;;;;;;9.60;3.57;;;;;;;;;;5094363;28;20491;-59
2022/08/02 03:21:50;;;;;;;3.00;2.70;;;;;;;;;;5094186;28;20446;-59
2022/08/02 03:24:17;;;;;;;3.77;2.90;;;;;;;;;;5094246;28;20446;-59
2022/08/02 03:26:44;;;;;;;6.13;3.30;;;;;;;;;;5094115;28;20442;-59
2022/08/02 03:29:12;;;;;;;4.20;3.23;;;;;;;;;;5094003;28;20474;-59
2022/08/02 03:31:41;;;;;;;4.80;3.17;;;;;;;;;;5093862;28;20461;-59
2022/08/02 03:34:08;;;;;;;3.83;3.40;;;;;;;;;;5093665;28;20461;-59
2022/08/02 03:36:35;;;;;;;4.47;3.10;;;;;;;;;;5094119;28;20450;-59
2022/08/02 03:39:03;;;;;;;4.03;2.63;;;;;;;;;;5094149;28;20533;-59
2022/08/02 03:41:30;;;;;;;2.57;2.37;;;;;;;;;;5093966;28;20534;-59
2022/08/02 03:43:57;;;;;;;5.50;2.60;;;;;;;;;;5093839;28;20533;-59
2022/08/02 03:46:25;;;;;;;3.50;3.00;;;;;;;;;;5094001;28;20442;-59
2022/08/02 03:48:53;;;;;;;6.53;3.17;;;;;;;;;;5093773;28;20964;-59
2022/08/02 03:51:20;;;;;;;3.57;3.07;;;;;;;;;;5093668;28;20448;-59
2022/08/02 03:53:48;;;;;;;2.90;2.60;;;;;;;;;;5093592;28;20447;-59
2022/08/02 03:56:16;;;;;;;5.40;3.00;;;;;;;;;;5093376;28;20570;-59
2022/08/02 03:58:43;;;;;;;3.77;2.23;;;;;;;;;;5093454;28;20454;-59
2022/08/02 04:01:10;;;;;;;3.07;2.57;;;;;;;;;;5093674;28;20457;-59
2022/08/02 04:03:38;;;;;;;4.10;2.77;;;;;;;;;;5093609;28;20537;-59
2022/08/02 04:06:05;;;;;;;3.40;2.83;;;;;;;;;;5093313;28;20450;-59
2022/08/02 04:08:32;;;;;;;3.90;2.90;;;;;;;;;;5093295;28;20874;-59
2022/08/02 04:13:43;;;;;;;3.27;2.73;;;;;;;;;;5093311;28;20519;-59
2022/08/02 04:16:12;;;;;;;6.70;2.90;;;;;;;;;;5093343;28;20442;-59
2022/08/02 04:18:44;;;;;;;4.30;3.03;;;;;;;;;;5093116;28;21040;-59
2022/08/02 04:21:13;;;;;;;9.70;2.80;;;;;;;;;;5093198;28;20465;-59
2022/08/02 04:23:42;;;;;;;4.13;3.00;;;;;;;;;;5093008;28;20533;-59
2022/08/02 04:26:10;;;;;;;3.33;2.70;;;;;;;;;;5093205;28;20541;-59
2022/08/02 04:28:37;;;;;;;4.80;3.47;;;;;;;;;;5093086;28;20526;-59
2022/08/02 04:31:04;;;;;;;3.20;3.00;;;;;;;;;;5093154;28;20479;-59
2022/08/02 04:33:31;;;;;;;7.50;4.07;;;;;;;;;;5092961;28;21012;-59
2022/08/02 04:35:59;;;;;;;3.53;2.77;;;;;;;;;;5092959;28;20446;-59
2022/08/02 04:38:27;;;;;;;4.00;3.40;;;;;;;;;;5092862;28;20442;-59
2022/08/02 04:40:54;;;;;;;5.10;3.10;;;;;;;;;;5093033;28;20453;-59
2022/08/02 04:43:21;;;;;;;4.53;3.03;;;;;;;;;;5092936;28;20546;-59
2022/08/02 04:45:50;;;;;;;3.17;2.83;;;;;;;;;;5093620;28;20450;-59
2022/08/02 04:48:17;;;;;;;5.27;2.70;;;;;;;;;;5097130;28;20496;-59
2022/08/02 04:50:44;;;;;;;4.37;2.70;;;;;;;;;;5096859;28;20485;-59
2022/08/02 04:53:12;;;;;;;5.00;2.30;;;;;;;;;;5097032;28;20833;-59
2022/08/02 04:55:39;;;;;;;4.33;2.70;;;;;;;;;;5096976;28;20456;-59
2022/08/02 04:58:06;;;;;;;4.40;3.20;;;;;;;;;;5096679;28;20833;-59
2022/08/02 05:00:33;;;;;;;6.03;2.70;;;;;;;;;;5096868;28;20486;-59
2022/08/02 05:03:01;;;;;;;4.90;2.87;;;;;;;;;;5096709;28;20524;-59
2022/08/02 05:05:28;;;;;;;7.60;2.63;;;;;;;;;;5096919;28;20450;-59
2022/08/02 05:07:55;;;;;;;6.67;2.87;;;;;;;;;;5096801;28;20482;-59
2022/08/02 05:10:23;;;;;;;4.50;2.40;;;;;;;;;;5096588;28;20844;-59
2022/08/02 05:12:50;;;;;;;5.33;2.70;;;;;;;;;;5096634;28;20775;-59
2022/08/02 05:15:17;;;;;;;4.33;2.50;;;;;;;;;;5096710;28;20576;-59
2022/08/02 05:17:45;;;;;;;5.03;3.20;;;;;;;;;;5096467;28;20450;-59
2022/08/02 05:20:13;;;;;;;6.13;3.07;;;;;;;;;;5096652;28;20533;-59
2022/08/02 05:22:40;;;;;;;7.83;2.60;;;;;;;;;;5096483;28;20932;-58
2022/08/02 05:25:07;;;;;;;6.40;2.20;;;;;;;;;;5096427;28;20519;-59
2022/08/02 05:27:35;;;;;;;4.73;2.50;;;;;;;;;;5096271;28;20449;-58
2022/08/02 05:30:02;;;;;;;6.90;2.03;;;;;;;;;;5096288;28;20485;-58
2022/08/02 05:32:29;;;;;;;5.20;2.30;;;;;;;;;;5095896;28;20474;-59
2022/08/02 05:34:56;;;;;;;2.90;2.00;;;;;;;;;;5096323;28;20437;-59
2022/08/02 05:37:24;;;;;;;5.87;2.53;;;;;;;;;;5096239;28;20478;-59
2022/08/02 05:39:51;;;;;;;7.63;2.07;;;;;;;;;;5096009;28;20798;-59
2022/08/02 05:42:18;;;;;;;13.30;3.10;;;;;;;;;;5095946;28;20452;-59
2022/08/02 05:44:46;;;;;;;6.53;2.93;;;;;;;;;;5095820;28;20856;-59
2022/08/02 05:47:13;;;;;;;7.53;2.27;;;;;;;;;;5096068;28;20448;-59
2022/08/02 05:49:40;;;;;;;44.70;6.23;;;;;;;;;;5095860;28;20955;-59
2022/08/02 05:52:11;;;;;;;6.97;2.70;;;;;;;;;;5095766;28;20453;-59
2022/08/02 05:54:46;;;;;;;3.03;2.13;;;;;;;;;;5095632;28;20522;-58
2022/08/02 05:57:17;;;;;;;7.03;2.70;;;;;;;;;;5095108;28;20903;-58
2022/08/02 05:59:48;;;;;;;5.40;3.10;;;;;;;;;;5095831;28;20478;-59
2022/08/02 06:02:20;;;;;;;8.40;2.20;;;;;;;;;;5095649;28;20452;-58
2022/08/02 06:04:52;;;;;;;6.87;2.20;;;;;;;;;;5095658;28;20537;-59
2022/08/02 06:07:20;;;;;;;3.63;1.90;;;;;;;;;;5095406;28;20457;-59
2022/08/02 06:09:48;;;;;;;7.40;1.73;;;;;;;;;;5095248;28;20478;-59
2022/08/02 06:12:16;;;;;;;3.20;1.80;;;;;;;;;;5095600;28;20883;-59
2022/08/02 06:14:44;;;;;;;3.37;1.63;;;;;;;;;;5095441;28;20537;-59
2022/08/02 06:17:12;;;;;;;8.00;2.90;;;;;;;;;;5095379;28;20889;-59
2022/08/02 06:19:41;;;;;;;6.70;2.30;;;;;;;;;;5095401;28;20863;-59
2022/08/02 06:22:14;;;;;;;4.23;2.37;;;;;;;;;;5095105;28;20446;-60
2022/08/02 06:24:43;;;;;;;4.70;2.13;;;;;;;;;;5095256;28;20453;-59
2022/08/02 06:27:10;;;;;;;6.83;1.70;;;;;;;;;;5095234;28;20465;-59
2022/08/02 06:29:38;;;;;;;6.03;2.03;;;;;;;;;;5095004;28;20500;-59
2022/08/02 06:32:05;;;;;;;2.70;1.60;;;;;;;;;;5095041;28;20446;-59
2022/08/02 06:34:36;;;;;;;9.43;2.17;;;;;;;;;;5094720;28;20519;-59
2022/08/02 06:37:07;;;;;;;3.90;1.97;;;;;;;;;;5094721;28;20868;-59
2022/08/02 06:39:38;;;;;;;5.00;2.20;;;;;;;;;;5094984;28;20497;-59
2022/08/02 06:42:11;;;;;;;5.83;1.77;;;;;;;;;;5094905;28;20442;-59
2022/08/02 06:44:38;;;;;;;4.87;1.40;;;;;;;;;;5094827;28;20446;-59
2022/08/02 06:47:05;;;;;;;3.37;1.93;;;;;;;;;;5094642;28;20533;-59
2022/08/02 06:49:32;;;;;;;4.10;2.17;;;;;;;;;;5094429;28;20446;-59
2022/08/02 06:52:00;;;;;;;3.37;1.90;;;;;;;;;;5094642;28;20447;-59
2022/08/02 06:54:27;;;;;;;3.60;2.27;;;;;;;;;;5094625;28;20450;-59
2022/08/02 06:56:54;;;;;;;22.67;3.33;;;;;;;;;;5094330;28;20471;-59
2022/08/02 06:59:21;;;;;;;7.23;2.40;;;;;;;;;;5094387;28;20453;-59
2022/08/02 07:01:48;;;;;;;3.33;1.90;;;;;;;;;;5094327;28;20449;-59
2022/08/02 07:04:15;;;;;;;5.17;1.90;;;;;;;;;;5094667;28;20447;-59
2022/08/02 07:06:42;;;;;;;4.87;2.10;;;;;;;;;;5094285;28;20936;-59
2022/08/02 07:09:10;;;;;;;4.90;2.00;;;;;;;;;;5093641;28;20450;-59
2022/08/02 07:11:37;;;;;;;2.50;1.97;;;;;;;;;;5094118;28;20482;-59
2022/08/02 07:14:04;;;;;;;3.30;2.03;;;;;;;;;;5097111;28;20541;-59
2022/08/02 07:16:31;;;;;;;4.23;1.73;;;;;;;;;;5110893;28;20508;-59
2022/08/02 07:18:58;;;;;;;8.27;2.60;;;;;;;;;;5114501;28;20558;-61
2022/08/02 07:21:25;;;;;;;4.90;1.53;;;;;;;;;;5114535;28;20808;-61
2022/08/02 07:23:52;;;;;;;4.57;2.60;;;;;;;;;;5094978;28;20447;-63
2022/08/02 07:26:20;;;;;;;8.07;1.77;;;;;;;;;;5107020;28;20532;-60
2022/08/02 07:28:47;;;;;;;3.87;1.90;;;;;;;;;;5113891;28;20441;-60
2022/08/02 07:31:14;;;;;;;2.50;1.80;;;;;;;;;;5106721;28;20988;-63
2022/08/02 07:33:41;;;;;;;9.17;3.57;;;;;;;;;;5103395;28;20537;-60
2022/08/02 07:36:09;;;;;;;6.30;3.20;;;;;;;;;;5097463;28;20529;-64
2022/08/02 07:38:36;;;;;;;8.27;3.37;;;;;;;;;;5093318;28;20457;-64
2022/08/02 07:41:03;;;;;;;11.80;2.40;;;;;;;;;;5099795;28;20458;-63
2022/08/02 07:43:31;;;;;;;4.80;2.33;;;;;;;;;;5113089;28;20485;-63
2022/08/02 07:45:58;;;;;;;3.40;2.67;;;;;;;;;;5112630;28;20820;-61
2022/08/02 07:48:25;;;;;;;5.00;3.07;;;;;;;;;;5112361;28;21053;-60
2022/08/02 07:50:52;;;;;;;2.37;1.83;;;;;;;;;;5099965;28;20477;-61
2022/08/02 07:53:19;;;;;;;3.47;1.80;;;;;;;;;;5113004;28;20537;-62
2022/08/02 07:55:46;;;;;;;4.10;2.10;;;;;;;;;;5113679;28;20477;-62
2022/08/02 07:58:13;;;;;;;4.13;2.07;;;;;;;;;;5111974;27;20519;-62
2022/08/02 08:00:42;;;;;;;7.30;2.27;;;;;;;;;;5113400;28;20940;-63
2022/08/02 08:03:09;;;;;;;2.83;2.10;;;;;;;;;;5113641;28;20494;-59
2022/08/02 08:05:36;;;;;;;3.93;2.50;;;;;;;;;;5110418;28;20553;-59
2022/08/02 08:08:03;;;;;;;3.60;2.27;;;;;;;;;;5108960;28;20444;-59
2022/08/02 08:10:32;;;;;;;4.23;1.93;;;;;;;;;;5113291;28;20477;-59
2022/08/02 08:12:59;;;;;;;3.00;2.00;;;;;;;;;;5113571;28;20472;-61
2022/08/02 08:15:26;;;;;;;3.20;2.00;;;;;;;;;;5113584;28;20472;-62
2022/08/02 08:17:54;;;;;;;2.70;2.07;;;;;;;;;;5112818;28;20452;-58
2022/08/02 08:20:21;;;;;;;3.40;1.90;;;;;;;;;;5113175;28;20448;-61
2022/08/02 08:22:48;;;;;;;4.33;2.27;;;;;;;;;;5109216;28;20447;-61
2022/08/02 08:25:16;;;;;;;4.50;2.23;;;;;;;;;;5111915;28;20457;-61
2022/08/02 08:27:48;;;;;;;4.33;2.00;;;;;;;;;;5113411;28;20479;-61
2022/08/02 08:30:15;;;;;;;5.20;2.13;;;;;;;;;;5112288;27;20485;-61
2022/08/02 08:32:42;;;;;;;5.20;2.00;;;;;;;;;;5106230;28;20563;-60
2022/08/02 08:35:10;;;;;;;4.77;2.47;;;;;;;;;;5098023;28;20450;-58
2022/08/02 08:37:38;;;;;;;5.23;1.80;;;;;;;;;;5110143;28;20486;-59
2022/08/02 08:40:06;;;;;;;5.17;2.33;;;;;;;;;;5108723;28;20450;-61
2022/08/02 08:42:33;;;;;;;3.40;1.90;;;;;;;;;;5112165;28;20878;-61
2022/08/02 08:45:00;;;;;;;2.63;1.77;;;;;;;;;;5112159;28;21000;-61
2022/08/02 08:47:29;;;;;;;5.10;2.30;;;;;;;;;;5112990;28;20642;-60
2022/08/02 08:49:58;;;;;;;5.00;2.23;;;;;;;;;;5112577;28;20457;-63
2022/08/02 08:52:27;;;;;;;4.00;1.93;;;;;;;;;;5112731;28;20532;-61
2022/08/02 08:54:55;;;;;;;5.17;2.30;;;;;;;;;;5111263;28;20528;-61
2022/08/02 08:57:23;;;;;;;4.30;2.40;;;;;;;;;;5103955;28;20820;-60
2022/08/02 08:59:50;;;;;;;4.13;2.30;;;;;;;;;;5103122;28;20520;-60
2022/08/02 09:02:17;;;;;;;3.57;2.37;;;;;;;;;;5111991;28;20480;-57
2022/08/02 09:04:44;;;;;;;3.10;2.00;;;;;;;;;;5112550;28;20956;-59
2022/08/02 09:07:11;;;;;;;4.97;2.40;;;;;;;;;;5112341;28;20482;-60
2022/08/02 09:09:39;;;;;;;3.77;2.03;;;;;;;;;;5112350;28;20445;-59
2022/08/02 09:12:15;;;;;;;3.73;2.00;;;;;;;;;;5112099;28;20991;-59
2022/08/02 09:14:42;;;;;;;2.00;1.90;;;;;;;;;;5112570;28;20476;-59
2022/08/02 09:17:11;;;;;;;2.80;2.20;;;;;;;;;;5112305;28;20449;-59
2022/08/02 09:19:38;;;;;;;5.17;2.17;;;;;;;;;;5101097;28;20937;-59
2022/08/02 09:22:06;;;;;;;3.97;1.83;;;;;;;;;;5095072;28;20455;-59
2022/08/02 09:24:43;;;;;;;2.90;2.00;;;;;;;;;;5112583;28;20471;-61
2022/08/02 09:27:14;;;;;;;3.70;2.43;;;;;;;;;;5112590;28;20457;-60
2022/08/02 09:29:41;;;;;;;4.13;1.77;;;;;;;;;;5112585;28;20434;-60
2022/08/02 09:32:08;;;;;;;5.33;2.37;;;;;;;;;;5101144;28;20469;-60
2022/08/02 09:34:45;;;;;;;1.90;1.80;;;;;;;;;;5115229;28;20809;-62
2022/08/02 09:37:22;;;;;;;3.73;2.10;;;;;;;;;;5116487;28;20816;-61
2022/08/02 09:39:50;;;;;;;5.27;2.80;;;;;;;;;;5116350;28;20441;-60
2022/08/02 09:42:17;;;;;;;5.57;2.40;;;;;;;;;;5115200;28;20449;-60
2022/08/02 09:44:53;;;;;;;5.23;2.30;;;;;;;;;;5116567;28;20475;-62
2022/08/02 09:47:20;;;;;;;4.10;1.63;;;;;;;;;;5115531;28;20453;-62
2022/08/02 09:49:47;;;;;;;2.60;2.17;;;;;;;;;;5096057;28;20537;-63
2022/08/02 09:52:15;;;;;;;3.13;1.87;;;;;;;;;;5109626;28;20484;-61
2022/08/02 09:54:42;;;;;;;6.17;1.93;;;;;;;;;;5115851;28;20866;-60
2022/08/02 09:57:11;;;;;;;3.93;1.50;;;;;;;;;;5116011;28;20469;-62
2022/08/02 09:59:38;;;;;;;2.63;1.80;;;;;;;;;;5116222;28;20445;-64
2022/08/02 10:02:11;;;;;;;4.83;2.00;;;;;;;;;;5115850;28;20952;-61
2022/08/02 10:04:38;;;;;;;3.83;2.10;;;;;;;;;;5113380;28;20458;-62
2022/08/02 10:07:05;;;;;;;3.17;2.07;;;;;;;;;;5095357;28;20867;-60
2022/08/02 10:09:32;;;;;;;3.30;2.00;;;;;;;;;;5095410;28;20531;-59
2022/08/02 10:12:00;;;;;;;2.30;1.80;;;;;;;;;;5095603;28;20482;-60
2022/08/02 10:14:28;;;;;;;3.40;1.80;;;;;;;;;;5095425;28;20468;-59
2022/08/02 10:16:57;;;;;;;4.03;1.30;;;;;;;;;;5095088;28;20479;-59
2022/08/02 10:19:24;;;;;;;2.33;1.70;;;;;;;;;;5095232;28;20863;-58
2022/08/02 10:21:56;;;;;;;2.60;1.50;;;;;;;;;;5095674;28;20541;-59
2022/08/02 10:24:24;;;;;;;2.70;1.40;;;;;;;;;;5095278;28;20549;-58
2022/08/02 10:26:52;;;;;;;1.90;1.73;;;;;;;;;;5095987;28;20446;-59
2022/08/02 10:29:20;;;;;;;4.83;1.43;;;;;;;;;;5098942;28;20450;-65
2022/08/02 10:31:51;;;;;;;5.40;1.70;;;;;;;;;;5094886;28;20470;-60
2022/08/02 10:34:22;;;;;;;5.00;1.93;;;;;;;;;;5114850;28;20445;-60
2022/08/02 10:36:50;;;;;;;2.80;1.80;;;;;;;;;;5115250;28;20541;-60
2022/08/02 10:39:17;;;;;;;4.33;1.93;;;;;;;;;;5115272;28;20800;-60
2022/08/02 10:41:45;;;;;;;3.20;1.60;;;;;;;;;;5115050;28;20459;-60
2022/08/02 10:44:22;;;;;;;2.83;1.40;;;;;;;;;;5114142;28;20445;-58
2022/08/02 10:46:51;;;;;;;2.60;1.50;;;;;;;;;;5114136;28;20532;-61
2022/08/02 10:49:18;;;;;;;1.70;1.60;;;;;;;;;;5114927;28;20450;-62
2022/08/02 10:52:12;;;;;;;3.70;1.70;;;;;;;;;;5108544;28;20481;-60
2022/08/02 10:54:40;;;;;;;3.93;1.77;;;;;;;;;;5114878;28;20528;-60
2022/08/02 10:57:15;;;;;;;2.67;1.53;;;;;;;;;;5112669;28;20563;-59
2022/08/02 10:59:42;;;;;;;2.50;1.70;;;;;;;;;;5113141;28;20449;-58
2022/08/02 11:02:11;;;;;;;2.60;1.60;;;;;;;;;;5114037;28;20529;-59
2022/08/02 11:04:57;;;;;;;3.10;2.20;;;;;;;;;;5108868;28;20451;-59
2022/08/02 11:07:32;;;;;;;11.40;3.37;;;;;;;;;;5106893;28;20462;-59
2022/08/02 11:10:00;;;;;;;5.20;2.10;;;;;;;;;;5096529;27;20511;-59
2022/08/02 11:12:27;;;;;;;6.50;1.77;;;;;;;;;;5113740;28;20878;-59
2022/08/02 11:14:59;;;;;;;3.43;1.40;;;;;;;;;;5113486;28;20541;-60
2022/08/02 11:17:28;;;;;;;2.60;2.30;;;;;;;;;;5114302;28;20541;-61
2022/08/02 11:20:14;;;;;;;2.90;1.83;;;;;;;;;;5114526;28;20450;-62
2022/08/02 11:22:41;;;;;;;3.40;1.67;;;;;;;;;;5112152;28;20861;-62
2022/08/02 11:25:22;;;;;;;3.10;1.70;;;;;;;;;;5114496;28;20441;-66
2022/08/02 11:27:50;;;;;;;4.27;1.40;;;;;;;;;;5111117;28;20450;-63
2022/08/02 11:30:18;;;;;;;2.70;1.40;;;;;;;;;;5112811;28;20869;-62
2022/08/02 11:32:46;;;;;;;1.27;1.10;;;;;;;;;;5112125;28;20473;-60
2022/08/02 11:35:13;;;;;;;2.40;1.47;;;;;;;;;;5114279;28;20441;-59
2022/08/02 11:37:41;;;;;;;2.10;1.23;;;;;;;;;;5114265;28;20947;-59
2022/08/02 11:40:09;;;;;;;3.43;1.40;;;;;;;;;;5113933;28;20951;-61
2022/08/02 11:42:37;;;;;;;2.10;1.90;;;;;;;;;;5114124;28;20533;-60
2022/08/02 11:45:05;;;;;;;3.83;1.40;;;;;;;;;;5112876;27;20445;-64
2022/08/02 11:47:33;;;;;;;1.50;1.30;;;;;;;;;;5114150;28;20537;-62
2022/08/02 11:50:07;;;;;;;2.80;1.77;;;;;;;;;;5114218;28;20963;-63
2022/08/02 11:52:35;;;;;;;3.73;1.70;;;;;;;;;;5113153;28;20533;-63
2022/08/02 11:55:02;;;;;;;7.07;1.57;;;;;;;;;;5111266;28;20944;-63
2022/08/02 11:57:29;;;;;;;2.03;1.80;;;;;;;;;;5097713;28;21152;-61
2022/08/02 11:59:57;;;;;;;1.20;1.10;;;;;;;;;;5098444;28;20445;-59
2022/08/02 12:02:25;;;;;;;1.67;1.20;;;;;;;;;;5100523;28;20445;-65
2022/08/02 12:04:53;;;;;;;1.83;1.60;;;;;;;;;;5100702;28;20450;-60
2022/08/02 12:07:25;;;;;;;2.07;1.20;;;;;;;;;;5103688;28;20450;-62
2022/08/02 12:09:53;;;;;;;2.47;1.63;;;;;;;;;;5113661;28;20445;-62
2022/08/02 12:12:20;;;;;;;3.83;1.10;;;;;;;;;;5111498;28;20477;-61
2022/08/02 12:14:47;;;;;;;3.37;1.87;;;;;;;;;;5106320;28;20456;-61
2022/08/02 12:19:59;;;;;;;2.17;1.23;;;;;;;;;;5092868;28;20496;-61
2022/08/02 12:22:27;;;;;;;2.20;1.30;;;;;;;;;;5093019;28;20518;-61
2022/08/02 12:24:56;;;;;;;2.80;1.67;;;;;;;;;;5092053;28;20478;-62
2022/08/02 12:27:30;;;;;;;1.50;1.20;;;;;;;;;;5092094;28;20450;-61
2022/08/02 12:30:01;;;;;;;7.30;1.77;;;;;;;;;;5092906;28;20451;-62
2022/08/02 12:32:28;;;;;;;1.73;1.40;;;;;;;;;;5092615;28;21010;-61
2022/08/02 12:35:16;;;;;;;2.83;1.43;;;;;;;;;;5092813;28;20442;-61
2022/08/02 12:37:46;;;;;;;4.07;1.30;;;;;;;;;;5088028;28;20525;-61
2022/08/02 12:40:20;;;;;;;2.30;1.23;;;;;;;;;;5092896;28;20480;-61
2022/08/02 12:42:47;;;;;;;3.63;1.63;;;;;;;;;;5092666;28;20500;-61
2022/08/02 12:45:14;;;;;;;2.83;1.30;;;;;;;;;;5092822;28;20541;-61
2022/08/02 12:47:45;;;;;;;3.93;1.17;;;;;;;;;;5092683;28;20446;-61
2022/08/02 12:50:13;;;;;;;2.73;1.73;;;;;;;;;;5092991;28;20485;-61
2022/08/02 12:52:40;;;;;;;4.07;1.40;;;;;;;;;;5092613;28;20678;-64
2022/08/02 12:55:17;;;;;;;3.20;1.40;;;;;;;;;;5092608;28;20490;-61
2022/08/02 12:57:51;;;;;;;5.20;1.70;;;;;;;;;;5092255;28;20710;-61
2022/08/02 13:00:23;;;;;;;3.53;1.53;;;;;;;;;;5092552;28;20540;-61
2022/08/02 13:02:50;;;;;;;3.10;1.40;;;;;;;;;;5092351;28;20948;-62
2022/08/02 13:05:17;;;;;;;6.73;1.60;;;;;;;;;;5092355;28;20535;-61
2022/08/02 13:07:44;;;;;;;1.57;1.30;;;;;;;;;;5094997;28;20476;-61
2022/08/02 13:10:13;;;;;;;4.33;1.37;;;;;;;;;;5096668;28;20896;-62
2022/08/02 13:12:41;;;;;;;1.63;1.53;;;;;;;;;;5096370;28;20565;-62
2022/08/02 13:15:08;;;;;;;2.60;1.60;;;;;;;;;;5096376;28;20783;-61
2022/08/02 13:17:36;;;;;;;3.27;1.40;;;;;;;;;;5096462;28;20533;-61
2022/08/02 13:20:03;;;;;;;5.80;1.87;;;;;;;;;;5096517;28;20537;-61
2022/08/02 13:22:30;;;;;;;3.67;1.23;;;;;;;;;;5096397;28;20465;-61
2022/08/02 13:24:57;;;;;;;1.67;1.23;;;;;;;;;;5096296;28;20450;-61
2022/08/02 13:27:24;;;;;;;3.23;1.43;;;;;;;;;;5096323;28;20482;-61
2022/08/02 13:29:53;;;;;;;1.30;1.20;;;;;;;;;;5096408;28;20537;-62
2022/08/02 13:32:20;;;;;;;1.30;1.20;;;;;;;;;;5096237;28;20509;-61
2022/08/02 13:34:47;;;;;;;3.73;1.73;;;;;;;;;;5096050;28;20541;-61
2022/08/02 13:37:14;;;;;;;2.80;1.40;;;;;;;;;;5096049;28;20514;-61
2022/08/02 13:39:41;;;;;;;5.90;1.37;;;;;;;;;;5095995;28;20537;-61
2022/08/02 13:42:09;;;;;;;1.97;1.43;;;;;;;;;;5096095;28;20489;-62
2022/08/02 13:44:35;;;;;;;1.70;1.60;;;;;;;;;;5095935;28;20476;-61
2022/08/02 13:47:04;;;;;;;2.40;1.30;;;;;;;;;;5095860;28;20482;-62
2022/08/02 13:49:31;;;;;;;3.13;2.07;;;;;;;;;;5095811;28;20446;-62
2022/08/02 13:51:58;;;;;;;2.07;1.37;;;;;;;;;;5095582;28;20474;-61
2022/08/02 13:54:25;;;;;;;1.57;1.40;;;;;;;;;;5095633;28;20474;-61
2022/08/02 13:56:52;;;;;;;2.23;1.30;;;;;;;;;;5095670;28;21064;-62
2022/08/02 13:59:19;;;;;;;2.17;1.20;;;;;;;;;;5095756;28;20443;-61
2022/08/02 14:01:46;;;;;;;3.60;1.40;;;;;;;;;;5095637;28;20802;-62
2022/08/02 14:04:14;;;;;;;3.63;1.67;;;;;;;;;;5095504;28;20534;-62
2022/08/02 14:06:41;;;;;;;2.60;1.30;;;;;;;;;;5095541;28;20544;-61
2022/08/02 14:09:08;;;;;;;1.77;1.40;;;;;;;;;;5095296;28;20863;-62
2022/08/02 14:11:35;;;;;;;3.00;1.63;;;;;;;;;;5095340;28;20938;-62
2022/08/02 14:14:02;;;;;;;6.47;2.40;;;;;;;;;;5095413;28;20541;-61
2022/08/02 14:16:29;;;;;;;4.33;1.50;;;;;;;;;;5095416;28;20807;-61
2022/08/02 14:18:56;;;;;;;2.70;1.70;;;;;;;;;;5095114;28;21014;-61
2022/08/02 14:21:24;;;;;;;2.00;1.40;;;;;;;;;;5095252;28;20454;-62
2022/08/02 14:23:51;;;;;;;4.40;2.10;;;;;;;;;;5095272;28;20450;-61
2022/08/02 14:26:18;;;;;;;1.60;1.50;;;;;;;;;;5094998;28;20941;-61
2022/08/02 14:28:45;;;;;;;2.50;1.20;;;;;;;;;;5095213;28;20545;-62
2022/08/02 14:31:12;;;;;;;4.50;1.60;;;;;;;;;;5095007;28;20822;-62
2022/08/02 14:33:39;;;;;;;2.60;2.40;;;;;;;;;;5094914;28;20485;-61
2022/08/02 14:36:07;;;;;;;4.70;1.40;;;;;;;;;;5095041;28;20539;-61
2022/08/02 14:38:36;;;;;;;4.93;1.60;;;;;;;;;;5095218;28;20482;-62
2022/08/02 14:41:03;;;;;;;2.60;1.30;;;;;;;;;;5095194;28;20474;-62
2022/08/02 14:46:15;;;;;;;3.40;1.70;;;;;;;;;;5095030;28;20530;-62
2022/08/02 14:48:42;;;;;;;2.07;1.20;;;;;;;;;;5094740;28;20450;-62
2022/08/02 14:51:11;;;;;;;4.37;2.53;;;;;;;;;;5094786;28;20537;-62
2022/08/02 14:53:39;;;;;;;2.17;1.23;;;;;;;;;;5094407;28;20989;-62
2022/08/02 14:56:06;;;;;;;2.13;1.40;;;;;;;;;;5094370;28;20453;-62
2022/08/02 14:58:33;;;;;;;5.50;1.47;;;;;;;;;;5094712;28;20450;-62